sensor_id;sensor_type;location;lat;lon;timestamp;temperature;humidity
35258;DHT22;21385;50.878;8.050;2022-08-18T00:02:08;20.40;99.90
35258;DHT22;21385;50.878;8.050;2022-08-18T00:04:35;20.40;99.90
35258;DHT22;21385;50.878;8.050;2022-08-18T00:07:04;20.30;99.90
35258;DHT22;21385;50.878;8.050;2022-08-18T00:09:31;20.30;99.90
35258;DHT22;21385;50.878;8.050;2022-08-18T00:11:57;20.30;99.90
35258;DHT22;21385;50.878;8.050;2022-08-18T00:14:23;20.30;99.90
35258;DHT22;21385;50.878;8.050;2022-08-18T00:16:53;20.20;99.90
35258;DHT22;21385;50.878;8.050;2022-08-18T00:19:19;20.20;99.90
35258;DHT22;21385;50.878;8.050;2022-08-18T00:21:45;20.10;99.90
35258;DHT22;21385;50.878;8.050;2022-08-18T00:24:10;20.10;99.90
35258;DHT22;21385;50.878;8.050;2022-08-18T00:26:36;20.10;99.90
35258;DHT22;21385;50.878;8.050;2022-08-18T00:29:02;20.00;99.90
35258;DHT22;21385;50.878;8.050;2022-08-18T00:31:28;20.00;99.90
35258;DHT22;21385;50.878;8.050;2022-08-18T00:33:54;19.90;99.90
35258;DHT22;21385;50.878;8.050;2022-08-18T00:36:19;19.90;99.90
35258;DHT22;21385;50.878;8.050;2022-08-18T00:38:45;19.80;99.90
35258;DHT22;21385;50.878;8.050;2022-08-18T00:41:11;19.80;99.90
35258;DHT22;21385;50.878;8.050;2022-08-18T00:43:42;19.80;99.90
35258;DHT22;21385;50.878;8.050;2022-08-18T00:46:17;19.70;99.90
35258;DHT22;21385;50.878;8.050;2022-08-18T00:48:43;19.60;99.90
35258;DHT22;21385;50.878;8.050;2022-08-18T00:51:14;19.60;99.90
35258;DHT22;21385;50.878;8.050;2022-08-18T00:53:45;19.60;99.90
35258;DHT22;21385;50.878;8.050;2022-08-18T00:56:20;19.60;99.90
35258;DHT22;21385;50.878;8.050;2022-08-18T00:58:52;19.60;99.90
35258;DHT22;21385;50.878;8.050;2022-08-18T01:01:22;19.50;99.90
35258;DHT22;21385;50.878;8.050;2022-08-18T01:03:51;19.50;99.90
35258;DHT22;21385;50.878;8.050;2022-08-18T01:06:23;19.50;99.90
35258;DHT22;21385;50.878;8.050;2022-08-18T01:08:50;19.40;99.90
35258;DHT22;21385;50.878;8.050;2022-08-18T01:11:16;19.40;99.90
35258;DHT22;21385;50.878;8.050;2022-08-18T01:13:42;19.30;99.90
35258;DHT22;21385;50.878;8.050;2022-08-18T01:16:08;19.30;99.90
35258;DHT22;21385;50.878;8.050;2022-08-18T01:18:52;19.20;99.90
35258;DHT22;21385;50.878;8.050;2022-08-18T01:21:40;19.10;99.90
35258;DHT22;21385;50.878;8.050;2022-08-18T01:24:23;19.10;99.90
35258;DHT22;21385;50.878;8.050;2022-08-18T01:27:09;19.00;99.90
35258;DHT22;21385;50.878;8.050;2022-08-18T01:29:35;19.00;99.90
35258;DHT22;21385;50.878;8.050;2022-08-18T01:32:01;18.90;99.90
35258;DHT22;21385;50.878;8.050;2022-08-18T01:34:27;18.90;99.90
35258;DHT22;21385;50.878;8.050;2022-08-18T01:36:53;18.80;99.90
35258;DHT22;21385;50.878;8.050;2022-08-18T01:39:20;18.80;99.90
35258;DHT22;21385;50.878;8.050;2022-08-18T01:41:46;18.80;99.90
35258;DHT22;21385;50.878;8.050;2022-08-18T01:44:11;18.90;99.90
35258;DHT22;21385;50.878;8.050;2022-08-18T01:46:39;19.00;99.90
35258;DHT22;21385;50.878;8.050;2022-08-18T01:49:07;19.10;99.90
35258;DHT22;21385;50.878;8.050;2022-08-18T01:51:33;19.20;99.90
35258;DHT22;21385;50.878;8.050;2022-08-18T01:54:00;19.30;99.90
35258;DHT22;21385;50.878;8.050;2022-08-18T01:56:26;19.40;99.90
35258;DHT22;21385;50.878;8.050;2022-08-18T01:58:53;19.40;99.90
35258;DHT22;21385;50.878;8.050;2022-08-18T02:01:20;19.50;99.90
35258;DHT22;21385;50.878;8.050;2022-08-18T02:03:50;19.60;99.90
35258;DHT22;21385;50.878;8.050;2022-08-18T02:06:17;19.60;99.90
35258;DHT22;21385;50.878;8.050;2022-08-18T02:08:44;19.60;99.90
35258;DHT22;21385;50.878;8.050;2022-08-18T02:11:10;19.70;99.90
35258;DHT22;21385;50.878;8.050;2022-08-18T02:13:36;19.70;99.90
35258;DHT22;21385;50.878;8.050;2022-08-18T02:16:02;19.80;99.90
35258;DHT22;21385;50.878;8.050;2022-08-18T02:18:31;19.80;99.90
35258;DHT22;21385;50.878;8.050;2022-08-18T02:20:58;19.80;99.90
35258;DHT22;21385;50.878;8.050;2022-08-18T02:23:29;19.80;99.90
35258;DHT22;21385;50.878;8.050;2022-08-18T02:25:55;19.80;99.90
35258;DHT22;21385;50.878;8.050;2022-08-18T02:28:20;19.90;99.90
35258;DHT22;21385;50.878;8.050;2022-08-18T02:30:46;19.90;99.90
35258;DHT22;21385;50.878;8.050;2022-08-18T02:33:12;19.90;99.90
35258;DHT22;21385;50.878;8.050;2022-08-18T02:35:38;19.90;99.90
35258;DHT22;21385;50.878;8.050;2022-08-18T02:38:05;19.90;99.90
35258;DHT22;21385;50.878;8.050;2022-08-18T02:40:33;19.90;99.90
35258;DHT22;21385;50.878;8.050;2022-08-18T02:43:04;19.90;99.90
35258;DHT22;21385;50.878;8.050;2022-08-18T02:45:29;19.90;99.90
35258;DHT22;21385;50.878;8.050;2022-08-18T02:47:55;19.90;99.90
35258;DHT22;21385;50.878;8.050;2022-08-18T02:50:22;19.90;99.90
35258;DHT22;21385;50.878;8.050;2022-08-18T02:52:49;19.90;99.90
35258;DHT22;21385;50.878;8.050;2022-08-18T02:55:15;19.90;99.90
35258;DHT22;21385;50.878;8.050;2022-08-18T02:57:42;19.90;99.90
35258;DHT22;21385;50.878;8.050;2022-08-18T03:00:08;19.80;99.90
35258;DHT22;21385;50.878;8.050;2022-08-18T03:02:36;19.90;99.90
35258;DHT22;21385;50.878;8.050;2022-08-18T03:05:03;19.80;99.90
35258;DHT22;21385;50.878;8.050;2022-08-18T03:07:29;19.80;99.90
35258;DHT22;21385;50.878;8.050;2022-08-18T03:09:54;19.80;99.90
35258;DHT22;21385;50.878;8.050;2022-08-18T03:12:20;19.80;99.90
35258;DHT22;21385;50.878;8.050;2022-08-18T03:14:46;19.80;99.90
35258;DHT22;21385;50.878;8.050;2022-08-18T03:17:11;19.80;99.90
35258;DHT22;21385;50.878;8.050;2022-08-18T03:19:39;19.70;99.90
35258;DHT22;21385;50.878;8.050;2022-08-18T03:22:07;19.70;99.90
35258;DHT22;21385;50.878;8.050;2022-08-18T03:24:33;19.70;99.90
35258;DHT22;21385;50.878;8.050;2022-08-18T03:27:00;19.70;99.90
35258;DHT22;21385;50.878;8.050;2022-08-18T03:29:27;19.70;99.90
35258;DHT22;21385;50.878;8.050;2022-08-18T03:31:53;19.60;99.90
35258;DHT22;21385;50.878;8.050;2022-08-18T03:34:19;19.60;99.90
35258;DHT22;21385;50.878;8.050;2022-08-18T03:36:46;19.60;99.90
35258;DHT22;21385;50.878;8.050;2022-08-18T03:39:12;19.60;99.90
35258;DHT22;21385;50.878;8.050;2022-08-18T03:41:43;19.60;99.90
35258;DHT22;21385;50.878;8.050;2022-08-18T03:44:13;19.60;99.90
35258;DHT22;21385;50.878;8.050;2022-08-18T03:46:45;19.60;99.90
35258;DHT22;21385;50.878;8.050;2022-08-18T03:49:11;19.60;99.90
35258;DHT22;21385;50.878;8.050;2022-08-18T03:51:39;19.60;99.90
35258;DHT22;21385;50.878;8.050;2022-08-18T03:54:08;19.60;99.90
35258;DHT22;21385;50.878;8.050;2022-08-18T03:56:36;19.60;99.90
35258;DHT22;21385;50.878;8.050;2022-08-18T03:59:09;19.60;99.90
35258;DHT22;21385;50.878;8.050;2022-08-18T04:01:37;19.60;99.90
35258;DHT22;21385;50.878;8.050;2022-08-18T04:04:05;19.60;99.90
35258;DHT22;21385;50.878;8.050;2022-08-18T04:06:40;19.50;99.90
35258;DHT22;21385;50.878;8.050;2022-08-18T04:09:10;19.50;99.90
35258;DHT22;21385;50.878;8.050;2022-08-18T04:11:37;19.50;99.90
35258;DHT22;21385;50.878;8.050;2022-08-18T04:14:06;19.50;99.90
35258;DHT22;21385;50.878;8.050;2022-08-18T04:16:32;19.50;99.90
35258;DHT22;21385;50.878;8.050;2022-08-18T04:18:59;19.50;99.90
35258;DHT22;21385;50.878;8.050;2022-08-18T04:21:28;19.50;99.90
35258;DHT22;21385;50.878;8.050;2022-08-18T04:23:56;19.40;99.90
35258;DHT22;21385;50.878;8.050;2022-08-18T04:26:22;19.40;99.90
35258;DHT22;21385;50.878;8.050;2022-08-18T04:28:47;19.40;99.90
35258;DHT22;21385;50.878;8.050;2022-08-18T04:31:14;19.40;99.90
35258;DHT22;21385;50.878;8.050;2022-08-18T04:33:40;19.30;99.90
35258;DHT22;21385;50.878;8.050;2022-08-18T04:36:13;19.30;99.90
35258;DHT22;21385;50.878;8.050;2022-08-18T04:38:39;19.30;99.90
35258;DHT22;21385;50.878;8.050;2022-08-18T04:41:07;19.30;99.90
35258;DHT22;21385;50.878;8.050;2022-08-18T04:43:32;19.30;99.90
35258;DHT22;21385;50.878;8.050;2022-08-18T04:45:59;19.20;99.90
35258;DHT22;21385;50.878;8.050;2022-08-18T04:48:28;19.30;99.90
35258;DHT22;21385;50.878;8.050;2022-08-18T04:51:07;19.20;99.90
35258;DHT22;21385;50.878;8.050;2022-08-18T04:53:34;19.20;99.90
35258;DHT22;21385;50.878;8.050;2022-08-18T04:56:28;19.30;99.90
35258;DHT22;21385;50.878;8.050;2022-08-18T04:59:03;19.20;99.90
35258;DHT22;21385;50.878;8.050;2022-08-18T05:01:40;19.20;99.90
35258;DHT22;21385;50.878;8.050;2022-08-18T05:04:06;19.30;99.90
35258;DHT22;21385;50.878;8.050;2022-08-18T05:06:32;19.20;99.90
35258;DHT22;21385;50.878;8.050;2022-08-18T05:09:03;19.20;99.90
35258;DHT22;21385;50.878;8.050;2022-08-18T05:11:30;19.20;99.90
35258;DHT22;21385;50.878;8.050;2022-08-18T05:14:02;19.20;99.90
35258;DHT22;21385;50.878;8.050;2022-08-18T05:16:29;19.20;99.90
35258;DHT22;21385;50.878;8.050;2022-08-18T05:19:05;19.20;99.90
35258;DHT22;21385;50.878;8.050;2022-08-18T05:21:32;19.20;99.90
35258;DHT22;21385;50.878;8.050;2022-08-18T05:23:58;19.20;99.90
35258;DHT22;21385;50.878;8.050;2022-08-18T05:26:25;19.20;99.90
35258;DHT22;21385;50.878;8.050;2022-08-18T05:28:52;19.30;99.90
35258;DHT22;21385;50.878;8.050;2022-08-18T05:31:20;19.30;99.90
35258;DHT22;21385;50.878;8.050;2022-08-18T05:33:47;19.30;99.90
35258;DHT22;21385;50.878;8.050;2022-08-18T05:41:50;19.40;99.90
35258;DHT22;21385;50.878;8.050;2022-08-18T05:44:24;19.40;99.90
35258;DHT22;21385;50.878;8.050;2022-08-18T05:47:33;19.40;99.90
35258;DHT22;21385;50.878;8.050;2022-08-18T05:49:42;19.40;99.90
35258;DHT22;21385;50.878;8.050;2022-08-18T05:52:14;19.50;99.90
35258;DHT22;21385;50.878;8.050;2022-08-18T05:54:49;19.50;99.90
35258;DHT22;21385;50.878;8.050;2022-08-18T05:57:43;19.50;99.90
35258;DHT22;21385;50.878;8.050;2022-08-18T06:00:09;19.50;99.90
35258;DHT22;21385;50.878;8.050;2022-08-18T06:02:44;19.50;99.90
35258;DHT22;21385;50.878;8.050;2022-08-18T06:05:19;19.60;99.90
35258;DHT22;21385;50.878;8.050;2022-08-18T06:07:54;19.60;99.90
35258;DHT22;21385;50.878;8.050;2022-08-18T06:10:21;19.60;99.90
35258;DHT22;21385;50.878;8.050;2022-08-18T06:12:49;19.70;99.90
35258;DHT22;21385;50.878;8.050;2022-08-18T06:28:11;20.10;99.90
35258;DHT22;21385;50.878;8.050;2022-08-18T06:31:01;20.20;99.90
35258;DHT22;21385;50.878;8.050;2022-08-18T06:33:48;20.20;99.90
35258;DHT22;21385;50.878;8.050;2022-08-18T06:39:06;20.20;99.90
35258;DHT22;21385;50.878;8.050;2022-08-18T06:41:36;20.30;99.90
35258;DHT22;21385;50.878;8.050;2022-08-18T06:44:11;20.40;99.90
35258;DHT22;21385;50.878;8.050;2022-08-18T06:49:33;20.50;99.90
35258;DHT22;21385;50.878;8.050;2022-08-18T06:52:27;20.40;99.90
35258;DHT22;21385;50.878;8.050;2022-08-18T06:55:14;20.50;99.90
35258;DHT22;21385;50.878;8.050;2022-08-18T06:57:58;20.60;99.90
35258;DHT22;21385;50.878;8.050;2022-08-18T07:00:27;20.60;99.90
35258;DHT22;21385;50.878;8.050;2022-08-18T07:03:03;20.60;99.90
35258;DHT22;21385;50.878;8.050;2022-08-18T07:05:33;20.50;99.90
35258;DHT22;21385;50.878;8.050;2022-08-18T07:08:10;20.60;99.90
35258;DHT22;21385;50.878;8.050;2022-08-18T07:10:40;20.50;99.90
35258;DHT22;21385;50.878;8.050;2022-08-18T07:13:07;20.50;99.90
35258;DHT22;21385;50.878;8.050;2022-08-18T07:15:39;20.60;99.90
35258;DHT22;21385;50.878;8.050;2022-08-18T07:18:06;20.60;99.90
35258;DHT22;21385;50.878;8.050;2022-08-18T07:21:01;20.70;99.90
35258;DHT22;21385;50.878;8.050;2022-08-18T07:23:31;20.70;99.90
35258;DHT22;21385;50.878;8.050;2022-08-18T07:26:18;20.70;99.90
35258;DHT22;21385;50.878;8.050;2022-08-18T07:28:46;20.70;99.90
35258;DHT22;21385;50.878;8.050;2022-08-18T07:31:36;20.80;99.90
35258;DHT22;21385;50.878;8.050;2022-08-18T07:34:14;20.90;99.90
35258;DHT22;21385;50.878;8.050;2022-08-18T07:36:49;21.10;99.90
35258;DHT22;21385;50.878;8.050;2022-08-18T07:39:35;21.10;99.90
35258;DHT22;21385;50.878;8.050;2022-08-18T07:42:20;21.00;99.90
35258;DHT22;21385;50.878;8.050;2022-08-18T07:45:13;21.00;99.90
35258;DHT22;21385;50.878;8.050;2022-08-18T07:47:56;21.00;99.90
35258;DHT22;21385;50.878;8.050;2022-08-18T07:50:26;21.00;99.90
35258;DHT22;21385;50.878;8.050;2022-08-18T07:53:03;21.10;99.90
35258;DHT22;21385;50.878;8.050;2022-08-18T07:55:34;21.20;99.90
35258;DHT22;21385;50.878;8.050;2022-08-18T08:01:03;21.20;99.90
35258;DHT22;21385;50.878;8.050;2022-08-18T08:03:58;21.20;99.90
35258;DHT22;21385;50.878;8.050;2022-08-18T08:12:01;21.20;99.90
35258;DHT22;21385;50.878;8.050;2022-08-18T08:17:06;21.10;99.90
35258;DHT22;21385;50.878;8.050;2022-08-18T08:25:03;21.10;99.90
35258;DHT22;21385;50.878;8.050;2022-08-18T08:27:39;21.10;99.90
35258;DHT22;21385;50.878;8.050;2022-08-18T08:30:16;21.10;99.90
35258;DHT22;21385;50.878;8.050;2022-08-18T08:35:44;21.10;99.90
35258;DHT22;21385;50.878;8.050;2022-08-18T08:38:15;21.10;99.90
35258;DHT22;21385;50.878;8.050;2022-08-18T08:40:52;21.10;99.90
35258;DHT22;21385;50.878;8.050;2022-08-18T08:43:24;21.20;99.90
35258;DHT22;21385;50.878;8.050;2022-08-18T08:46:21;21.30;99.90
35258;DHT22;21385;50.878;8.050;2022-08-18T08:49:00;21.30;99.90
35258;DHT22;21385;50.878;8.050;2022-08-18T08:51:47;21.40;99.90
35258;DHT22;21385;50.878;8.050;2022-08-18T08:54:23;21.30;99.90
35258;DHT22;21385;50.878;8.050;2022-08-18T08:56:53;21.20;99.90
35258;DHT22;21385;50.878;8.050;2022-08-18T08:59:21;21.20;99.90
35258;DHT22;21385;50.878;8.050;2022-08-18T09:02:08;21.20;99.90
35258;DHT22;21385;50.878;8.050;2022-08-18T09:05:05;21.20;99.90
35258;DHT22;21385;50.878;8.050;2022-08-18T09:10:44;21.30;99.90
35258;DHT22;21385;50.878;8.050;2022-08-18T09:13:44;21.30;99.90
35258;DHT22;21385;50.878;8.050;2022-08-18T09:22:03;21.30;99.90
35258;DHT22;21385;50.878;8.050;2022-08-18T09:24:49;21.30;99.90
35258;DHT22;21385;50.878;8.050;2022-08-18T09:27:42;21.30;99.90
35258;DHT22;21385;50.878;8.050;2022-08-18T09:30:49;21.30;99.90
35258;DHT22;21385;50.878;8.050;2022-08-18T09:38:57;21.50;99.90
35258;DHT22;21385;50.878;8.050;2022-08-18T09:41:53;21.50;99.90
35258;DHT22;21385;50.878;8.050;2022-08-18T09:47:11;21.50;99.90
35258;DHT22;21385;50.878;8.050;2022-08-18T09:49:54;21.60;99.90
35258;DHT22;21385;50.878;8.050;2022-08-18T09:59:57;21.80;99.90
35258;DHT22;21385;50.878;8.050;2022-08-18T10:13:40;22.60;99.90
35258;DHT22;21385;50.878;8.050;2022-08-18T10:16:21;22.70;99.90
35258;DHT22;21385;50.878;8.050;2022-08-18T10:24:53;22.90;99.90
35258;DHT22;21385;50.878;8.050;2022-08-18T10:27:51;23.00;99.90
35258;DHT22;21385;50.878;8.050;2022-08-18T10:33:04;23.20;99.90
35258;DHT22;21385;50.878;8.050;2022-08-18T10:38:02;23.50;99.90
35258;DHT22;21385;50.878;8.050;2022-08-18T10:40:30;23.60;99.90
35258;DHT22;21385;50.878;8.050;2022-08-18T10:45:50;23.60;99.90
35258;DHT22;21385;50.878;8.050;2022-08-18T10:48:24;23.60;99.90
35258;DHT22;21385;50.878;8.050;2022-08-18T10:51:03;23.60;99.90
35258;DHT22;21385;50.878;8.050;2022-08-18T11:04:46;24.00;99.90
35258;DHT22;21385;50.878;8.050;2022-08-18T11:07:13;24.00;99.90
35258;DHT22;21385;50.878;8.050;2022-08-18T11:09:45;24.20;99.90
35258;DHT22;21385;50.878;8.050;2022-08-18T11:12:12;24.30;99.90
35258;DHT22;21385;50.878;8.050;2022-08-18T11:14:51;24.50;99.90
35258;DHT22;21385;50.878;8.050;2022-08-18T11:20:20;24.70;99.90
35258;DHT22;21385;50.878;8.050;2022-08-18T11:22:53;24.60;99.90
35258;DHT22;21385;50.878;8.050;2022-08-18T11:25:27;24.60;99.80
35258;DHT22;21385;50.878;8.050;2022-08-18T11:27:53;24.60;99.70
35258;DHT22;21385;50.878;8.050;2022-08-18T11:30:21;24.60;99.70
35258;DHT22;21385;50.878;8.050;2022-08-18T11:32:48;24.60;99.70
35258;DHT22;21385;50.878;8.050;2022-08-18T11:35:18;24.60;99.10
35258;DHT22;21385;50.878;8.050;2022-08-18T11:43:02;24.50;99.20
35258;DHT22;21385;50.878;8.050;2022-08-18T11:45:33;24.50;99.60
35258;DHT22;21385;50.878;8.050;2022-08-18T11:50:27;24.30;99.80
35258;DHT22;21385;50.878;8.050;2022-08-18T11:52:53;24.30;99.80
35258;DHT22;21385;50.878;8.050;2022-08-18T11:55:30;24.20;99.90
35258;DHT22;21385;50.878;8.050;2022-08-18T11:57:58;24.20;99.90
35258;DHT22;21385;50.878;8.050;2022-08-18T12:03:22;24.10;99.90
35258;DHT22;21385;50.878;8.050;2022-08-18T12:05:53;24.00;99.90
35258;DHT22;21385;50.878;8.050;2022-08-18T12:11:05;24.00;99.90
35258;DHT22;21385;50.878;8.050;2022-08-18T12:13:31;23.90;99.90
35258;DHT22;21385;50.878;8.050;2022-08-18T12:16:16;23.90;99.90
35258;DHT22;21385;50.878;8.050;2022-08-18T12:18:54;23.90;99.90
35258;DHT22;21385;50.878;8.050;2022-08-18T12:21:20;23.90;99.90
35258;DHT22;21385;50.878;8.050;2022-08-18T12:23:47;23.80;99.90
35258;DHT22;21385;50.878;8.050;2022-08-18T12:26:13;23.80;99.90
35258;DHT22;21385;50.878;8.050;2022-08-18T12:28:39;23.80;99.90
35258;DHT22;21385;50.878;8.050;2022-08-18T12:31:06;23.70;99.90
35258;DHT22;21385;50.878;8.050;2022-08-18T12:33:32;23.70;99.90
35258;DHT22;21385;50.878;8.050;2022-08-18T12:35:58;23.60;99.90
35258;DHT22;21385;50.878;8.050;2022-08-18T12:38:24;23.60;99.90
35258;DHT22;21385;50.878;8.050;2022-08-18T12:40:50;23.60;99.90
35258;DHT22;21385;50.878;8.050;2022-08-18T12:43:15;23.70;99.90
35258;DHT22;21385;50.878;8.050;2022-08-18T12:45:41;23.70;99.90
35258;DHT22;21385;50.878;8.050;2022-08-18T12:48:07;23.70;99.90
35258;DHT22;21385;50.878;8.050;2022-08-18T12:50:35;23.70;99.90
35258;DHT22;21385;50.878;8.050;2022-08-18T12:53:01;23.70;99.90
35258;DHT22;21385;50.878;8.050;2022-08-18T12:55:34;23.70;99.90
35258;DHT22;21385;50.878;8.050;2022-08-18T12:58:00;23.70;99.90
35258;DHT22;21385;50.878;8.050;2022-08-18T13:00:26;23.70;99.90
35258;DHT22;21385;50.878;8.050;2022-08-18T13:02:51;23.60;99.90
35258;DHT22;21385;50.878;8.050;2022-08-18T13:05:17;23.60;99.90
35258;DHT22;21385;50.878;8.050;2022-08-18T13:07:44;23.60;99.90
35258;DHT22;21385;50.878;8.050;2022-08-18T13:10:09;23.60;99.90
35258;DHT22;21385;50.878;8.050;2022-08-18T13:12:35;23.50;99.90
35258;DHT22;21385;50.878;8.050;2022-08-18T13:15:00;23.50;99.90
35258;DHT22;21385;50.878;8.050;2022-08-18T13:17:26;23.60;99.90
35258;DHT22;21385;50.878;8.050;2022-08-18T13:19:52;23.60;99.90
35258;DHT22;21385;50.878;8.050;2022-08-18T13:22:17;23.60;99.90
35258;DHT22;21385;50.878;8.050;2022-08-18T13:24:43;23.70;99.90
35258;DHT22;21385;50.878;8.050;2022-08-18T13:27:08;23.80;99.90
35258;DHT22;21385;50.878;8.050;2022-08-18T13:29:34;23.90;99.60
35258;DHT22;21385;50.878;8.050;2022-08-18T13:31:59;24.00;99.70
35258;DHT22;21385;50.878;8.050;2022-08-18T13:34:26;24.30;99.50
35258;DHT22;21385;50.878;8.050;2022-08-18T13:36:53;24.50;99.10
35258;DHT22;21385;50.878;8.050;2022-08-18T13:39:22;24.60;98.80
35258;DHT22;21385;50.878;8.050;2022-08-18T13:41:49;24.70;98.80
35258;DHT22;21385;50.878;8.050;2022-08-18T13:44:16;24.80;98.50
35258;DHT22;21385;50.878;8.050;2022-08-18T13:46:43;25.00;98.30
35258;DHT22;21385;50.878;8.050;2022-08-18T13:49:14;25.20;97.40
35258;DHT22;21385;50.878;8.050;2022-08-18T13:51:41;25.30;97.40
35258;DHT22;21385;50.878;8.050;2022-08-18T13:54:13;25.40;96.70
35258;DHT22;21385;50.878;8.050;2022-08-18T13:56:40;25.60;96.80
35258;DHT22;21385;50.878;8.050;2022-08-18T13:59:05;25.70;96.20
35258;DHT22;21385;50.878;8.050;2022-08-18T14:01:32;25.90;96.30
35258;DHT22;21385;50.878;8.050;2022-08-18T14:03:57;25.90;95.70
35258;DHT22;21385;50.878;8.050;2022-08-18T14:06:23;25.90;96.10
35258;DHT22;21385;50.878;8.050;2022-08-18T14:08:49;26.10;95.90
35258;DHT22;21385;50.878;8.050;2022-08-18T14:11:16;26.20;95.40
35258;DHT22;21385;50.878;8.050;2022-08-18T14:13:42;26.40;94.90
35258;DHT22;21385;50.878;8.050;2022-08-18T14:16:08;26.40;94.50
35258;DHT22;21385;50.878;8.050;2022-08-18T14:18:34;26.50;94.30
35258;DHT22;21385;50.878;8.050;2022-08-18T14:21:00;26.60;94.40
35258;DHT22;21385;50.878;8.050;2022-08-18T14:23:44;26.70;94.30
35258;DHT22;21385;50.878;8.050;2022-08-18T14:26:28;26.90;93.90
35258;DHT22;21385;50.878;8.050;2022-08-18T14:29:13;27.00;93.50
35258;DHT22;21385;50.878;8.050;2022-08-18T14:31:39;27.00;93.00
35258;DHT22;21385;50.878;8.050;2022-08-18T14:34:05;27.10;93.10
35258;DHT22;21385;50.878;8.050;2022-08-18T14:36:30;27.10;93.00
35258;DHT22;21385;50.878;8.050;2022-08-18T14:38:59;26.90;93.30
35258;DHT22;21385;50.878;8.050;2022-08-18T14:41:25;26.90;93.10
35258;DHT22;21385;50.878;8.050;2022-08-18T14:43:51;26.90;93.00
35258;DHT22;21385;50.878;8.050;2022-08-18T14:46:18;26.90;92.80
35258;DHT22;21385;50.878;8.050;2022-08-18T14:48:45;26.90;92.70
35258;DHT22;21385;50.878;8.050;2022-08-18T14:51:10;27.00;93.00
35258;DHT22;21385;50.878;8.050;2022-08-18T14:53:36;27.10;92.50
35258;DHT22;21385;50.878;8.050;2022-08-18T14:56:02;27.10;92.50
35258;DHT22;21385;50.878;8.050;2022-08-18T14:58:30;27.10;91.80
35258;DHT22;21385;50.878;8.050;2022-08-18T15:01:01;27.00;92.10
35258;DHT22;21385;50.878;8.050;2022-08-18T15:03:29;26.80;92.00
35258;DHT22;21385;50.878;8.050;2022-08-18T15:05:55;26.60;92.40
35258;DHT22;21385;50.878;8.050;2022-08-18T15:08:21;26.60;93.10
35258;DHT22;21385;50.878;8.050;2022-08-18T15:10:47;26.60;92.60
35258;DHT22;21385;50.878;8.050;2022-08-18T15:13:13;26.80;93.00
35258;DHT22;21385;50.878;8.050;2022-08-18T15:15:39;27.10;92.50
35258;DHT22;21385;50.878;8.050;2022-08-18T15:18:05;27.50;91.20
35258;DHT22;21385;50.878;8.050;2022-08-18T15:20:31;27.90;90.50
35258;DHT22;21385;50.878;8.050;2022-08-18T15:23:01;28.20;90.10
35258;DHT22;21385;50.878;8.050;2022-08-18T15:25:47;28.50;89.60
35258;DHT22;21385;50.878;8.050;2022-08-18T15:28:14;28.70;88.00
35258;DHT22;21385;50.878;8.050;2022-08-18T15:30:43;28.80;87.50
35258;DHT22;21385;50.878;8.050;2022-08-18T15:33:09;28.70;86.90
35258;DHT22;21385;50.878;8.050;2022-08-18T15:35:35;28.70;86.80
35258;DHT22;21385;50.878;8.050;2022-08-18T15:38:01;28.70;85.40
35258;DHT22;21385;50.878;8.050;2022-08-18T15:40:27;28.70;85.80
35258;DHT22;21385;50.878;8.050;2022-08-18T15:42:57;28.80;84.70
35258;DHT22;21385;50.878;8.050;2022-08-18T15:45:29;28.90;84.20
35258;DHT22;21385;50.878;8.050;2022-08-18T15:47:56;28.90;84.10
35258;DHT22;21385;50.878;8.050;2022-08-18T15:50:22;28.90;83.20
35258;DHT22;21385;50.878;8.050;2022-08-18T15:52:56;28.90;82.70
35258;DHT22;21385;50.878;8.050;2022-08-18T15:55:23;29.00;83.10
35258;DHT22;21385;50.878;8.050;2022-08-18T15:57:50;29.00;82.40
35258;DHT22;21385;50.878;8.050;2022-08-18T16:00:17;29.00;83.90
35258;DHT22;21385;50.878;8.050;2022-08-18T16:02:49;28.90;82.90
35258;DHT22;21385;50.878;8.050;2022-08-18T16:05:16;28.90;83.30
35258;DHT22;21385;50.878;8.050;2022-08-18T16:07:42;28.70;81.30
35258;DHT22;21385;50.878;8.050;2022-08-18T16:10:10;28.50;82.70
35258;DHT22;21385;50.878;8.050;2022-08-18T16:12:36;28.30;82.80
35258;DHT22;21385;50.878;8.050;2022-08-18T16:15:02;28.10;83.90
35258;DHT22;21385;50.878;8.050;2022-08-18T16:17:29;27.80;84.70
35258;DHT22;21385;50.878;8.050;2022-08-18T16:19:56;27.50;86.20
35258;DHT22;21385;50.878;8.050;2022-08-18T16:22:22;27.20;86.90
35258;DHT22;21385;50.878;8.050;2022-08-18T16:24:48;27.00;87.20
35258;DHT22;21385;50.878;8.050;2022-08-18T16:27:14;26.90;88.10
35258;DHT22;21385;50.878;8.050;2022-08-18T16:29:41;26.90;89.00
35258;DHT22;21385;50.878;8.050;2022-08-18T16:32:06;26.80;88.90
35258;DHT22;21385;50.878;8.050;2022-08-18T16:34:32;26.70;89.60
35258;DHT22;21385;50.878;8.050;2022-08-18T16:36:59;26.60;89.00
35258;DHT22;21385;50.878;8.050;2022-08-18T16:39:24;26.40;89.10
35258;DHT22;21385;50.878;8.050;2022-08-18T16:41:50;26.20;89.80
35258;DHT22;21385;50.878;8.050;2022-08-18T16:44:18;26.20;90.00
35258;DHT22;21385;50.878;8.050;2022-08-18T16:46:47;26.10;90.40
35258;DHT22;21385;50.878;8.050;2022-08-18T16:49:15;26.10;90.20
35258;DHT22;21385;50.878;8.050;2022-08-18T16:51:41;26.10;90.50
35258;DHT22;21385;50.878;8.050;2022-08-18T16:54:09;26.00;90.30
35258;DHT22;21385;50.878;8.050;2022-08-18T16:56:36;25.90;90.40
35258;DHT22;21385;50.878;8.050;2022-08-18T16:59:02;25.90;90.80
35258;DHT22;21385;50.878;8.050;2022-08-18T17:01:46;25.90;90.50
35258;DHT22;21385;50.878;8.050;2022-08-18T17:04:31;25.80;90.70
35258;DHT22;21385;50.878;8.050;2022-08-18T17:07:01;25.80;90.90
35258;DHT22;21385;50.878;8.050;2022-08-18T17:09:28;25.70;90.90
35258;DHT22;21385;50.878;8.050;2022-08-18T17:11:53;25.60;91.20
35258;DHT22;21385;50.878;8.050;2022-08-18T17:14:24;25.60;91.30
35258;DHT22;21385;50.878;8.050;2022-08-18T17:16:50;25.60;91.10
35258;DHT22;21385;50.878;8.050;2022-08-18T17:19:24;25.50;91.30
35258;DHT22;21385;50.878;8.050;2022-08-18T17:21:51;25.50;91.60
35258;DHT22;21385;50.878;8.050;2022-08-18T17:24:16;25.40;91.60
35258;DHT22;21385;50.878;8.050;2022-08-18T17:27:08;25.40;91.70
35258;DHT22;21385;50.878;8.050;2022-08-18T17:29:46;25.40;91.80
35258;DHT22;21385;50.878;8.050;2022-08-18T17:32:25;25.30;91.50
35258;DHT22;21385;50.878;8.050;2022-08-18T17:35:15;25.30;91.80
35258;DHT22;21385;50.878;8.050;2022-08-18T17:37:50;25.10;91.90
35258;DHT22;21385;50.878;8.050;2022-08-18T17:40:39;24.90;92.30
35258;DHT22;21385;50.878;8.050;2022-08-18T17:43:11;24.80;92.50
35258;DHT22;21385;50.878;8.050;2022-08-18T17:45:38;24.70;92.80
35258;DHT22;21385;50.878;8.050;2022-08-18T17:48:13;24.70;93.00
35258;DHT22;21385;50.878;8.050;2022-08-18T17:50:51;24.60;93.00
35258;DHT22;21385;50.878;8.050;2022-08-18T17:53:38;24.60;93.10